sensor_id;sensor_type;location;lat;lon;timestamp;P1;durP1;ratioP1;P2;durP2;ratioP2
6955;SDS011;50345;51.136;16.886;2023-02-20T00:01:31;14.10;;;8.30;;
6955;SDS011;50345;51.136;16.886;2023-02-20T00:03:57;12.43;;;8.77;;
6955;SDS011;50345;51.136;16.886;2023-02-20T00:06:23;14.50;;;5.47;;
6955;SDS011;50345;51.136;16.886;2023-02-20T00:08:49;6.67;;;4.17;;
6955;SDS011;50345;51.136;16.886;2023-02-20T00:11:14;9.10;;;4.43;;
6955;SDS011;50345;51.136;16.886;2023-02-20T00:13:46;7.93;;;3.70;;
6955;SDS011;50345;51.136;16.886;2023-02-20T00:16:13;8.77;;;3.42;;
6955;SDS011;50345;51.136;16.886;2023-02-20T00:18:39;10.37;;;4.67;;
6955;SDS011;50345;51.136;16.886;2023-02-20T00:21:05;9.50;;;4.17;;
6955;SDS011;50345;51.136;16.886;2023-02-20T00:23:31;5.88;;;4.22;;
6955;SDS011;50345;51.136;16.886;2023-02-20T00:25:57;4.63;;;3.95;;
6955;SDS011;50345;51.136;16.886;2023-02-20T00:28:23;5.03;;;3.20;;
6955;SDS011;50345;51.136;16.886;2023-02-20T00:30:48;4.60;;;2.80;;
6955;SDS011;50345;51.136;16.886;2023-02-20T00:33:14;6.70;;;4.23;;
6955;SDS011;50345;51.136;16.886;2023-02-20T00:35:39;6.10;;;4.70;;
6955;SDS011;50345;51.136;16.886;2023-02-20T00:38:05;4.70;;;3.37;;
6955;SDS011;50345;51.136;16.886;2023-02-20T00:40:30;8.20;;;4.70;;
6955;SDS011;50345;51.136;16.886;2023-02-20T00:42:56;6.70;;;4.77;;
6955;SDS011;50345;51.136;16.886;2023-02-20T00:45:21;7.10;;;6.30;;
6955;SDS011;50345;51.136;16.886;2023-02-20T00:47:47;10.13;;;6.30;;
6955;SDS011;50345;51.136;16.886;2023-02-20T00:50:14;4.67;;;4.20;;
6955;SDS011;50345;51.136;16.886;2023-02-20T00:52:40;8.27;;;4.75;;
6955;SDS011;50345;51.136;16.886;2023-02-20T00:55:06;8.23;;;4.23;;
6955;SDS011;50345;51.136;16.886;2023-02-20T00:57:32;6.07;;;3.40;;
6955;SDS011;50345;51.136;16.886;2023-02-20T00:59:57;7.23;;;4.23;;
6955;SDS011;50345;51.136;16.886;2023-02-20T01:02:23;9.57;;;4.00;;
6955;SDS011;50345;51.136;16.886;2023-02-20T01:04:48;9.40;;;3.97;;
6955;SDS011;50345;51.136;16.886;2023-02-20T01:07:14;6.30;;;3.57;;
6955;SDS011;50345;51.136;16.886;2023-02-20T01:09:40;8.75;;;3.90;;
6955;SDS011;50345;51.136;16.886;2023-02-20T01:12:06;7.50;;;3.80;;
6955;SDS011;50345;51.136;16.886;2023-02-20T01:14:31;9.87;;;3.60;;
6955;SDS011;50345;51.136;16.886;2023-02-20T01:16:57;4.10;;;3.50;;
6955;SDS011;50345;51.136;16.886;2023-02-20T01:19:23;7.82;;;3.97;;
6955;SDS011;50345;51.136;16.886;2023-02-20T01:21:49;4.63;;;4.07;;
6955;SDS011;50345;51.136;16.886;2023-02-20T01:24:15;10.65;;;4.80;;
6955;SDS011;50345;51.136;16.886;2023-02-20T01:26:42;7.78;;;5.40;;
6955;SDS011;50345;51.136;16.886;2023-02-20T01:29:08;9.50;;;6.60;;
6955;SDS011;50345;51.136;16.886;2023-02-20T01:31:34;5.67;;;3.70;;
6955;SDS011;50345;51.136;16.886;2023-02-20T01:33:59;7.00;;;3.90;;
6955;SDS011;50345;51.136;16.886;2023-02-20T01:36:25;8.17;;;4.07;;
6955;SDS011;50345;51.136;16.886;2023-02-20T01:38:51;3.70;;;2.75;;
6955;SDS011;50345;51.136;16.886;2023-02-20T01:41:17;6.78;;;4.15;;
6955;SDS011;50345;51.136;16.886;2023-02-20T01:43:44;5.85;;;3.30;;
6955;SDS011;50345;51.136;16.886;2023-02-20T01:48:53;6.05;;;2.70;;
6955;SDS011;50345;51.136;16.886;2023-02-20T01:51:35;5.00;;;3.20;;
6955;SDS011;50345;51.136;16.886;2023-02-20T01:54:06;5.03;;;3.00;;
6955;SDS011;50345;51.136;16.886;2023-02-20T01:56:33;4.72;;;3.25;;
6955;SDS011;50345;51.136;16.886;2023-02-20T01:58:59;3.90;;;2.33;;
6955;SDS011;50345;51.136;16.886;2023-02-20T02:01:26;7.32;;;3.13;;
6955;SDS011;50345;51.136;16.886;2023-02-20T02:03:52;6.50;;;3.40;;
6955;SDS011;50345;51.136;16.886;2023-02-20T02:06:24;10.50;;;3.35;;
6955;SDS011;50345;51.136;16.886;2023-02-20T02:08:50;12.05;;;4.20;;
6955;SDS011;50345;51.136;16.886;2023-02-20T02:11:17;8.07;;;5.13;;
6955;SDS011;50345;51.136;16.886;2023-02-20T02:13:45;9.13;;;4.03;;
6955;SDS011;50345;51.136;16.886;2023-02-20T02:24:15;6.07;;;3.85;;
6955;SDS011;50345;51.136;16.886;2023-02-20T02:41:02;6.07;;;3.80;;
6955;SDS011;50345;51.136;16.886;2023-02-20T02:43:44;5.43;;;3.05;;
6955;SDS011;50345;51.136;16.886;2023-02-20T02:46:19;4.22;;;3.03;;
6955;SDS011;50345;51.136;16.886;2023-02-20T02:48:53;6.15;;;2.83;;
6955;SDS011;50345;51.136;16.886;2023-02-20T02:51:25;7.38;;;3.33;;
6955;SDS011;50345;51.136;16.886;2023-02-20T02:56:36;5.90;;;4.00;;
6955;SDS011;50345;51.136;16.886;2023-02-20T02:59:11;6.32;;;5.20;;
6955;SDS011;50345;51.136;16.886;2023-02-20T03:01:42;4.32;;;3.78;;
6955;SDS011;50345;51.136;16.886;2023-02-20T03:04:14;5.57;;;3.78;;
6955;SDS011;50345;51.136;16.886;2023-02-20T03:06:47;5.15;;;4.63;;
6955;SDS011;50345;51.136;16.886;2023-02-20T03:09:18;5.32;;;3.80;;
6955;SDS011;50345;51.136;16.886;2023-02-20T03:11:53;5.82;;;3.55;;
6955;SDS011;50345;51.136;16.886;2023-02-20T03:14:22;2.65;;;2.45;;
6955;SDS011;50345;51.136;16.886;2023-02-20T03:20:00;6.85;;;2.40;;
6955;SDS011;50345;51.136;16.886;2023-02-20T03:22:30;5.10;;;3.13;;
6955;SDS011;50345;51.136;16.886;2023-02-20T03:25:03;5.43;;;2.38;;
6955;SDS011;50345;51.136;16.886;2023-02-20T03:30:09;9.70;;;4.05;;
6955;SDS011;50345;51.136;16.886;2023-02-20T03:32:44;1.88;;;1.70;;
6955;SDS011;50345;51.136;16.886;2023-02-20T03:35:31;4.20;;;2.05;;
6955;SDS011;50345;51.136;16.886;2023-02-20T03:38:17;9.63;;;4.90;;
6955;SDS011;50345;51.136;16.886;2023-02-20T03:41:05;3.70;;;2.50;;
6955;SDS011;50345;51.136;16.886;2023-02-20T03:43:51;5.18;;;2.65;;
6955;SDS011;50345;51.136;16.886;2023-02-20T03:46:19;6.47;;;2.20;;
6955;SDS011;50345;51.136;16.886;2023-02-20T03:48:57;9.50;;;3.40;;
6955;SDS011;50345;51.136;16.886;2023-02-20T03:51:28;9.10;;;2.42;;
6955;SDS011;50345;51.136;16.886;2023-02-20T03:53:53;4.70;;;2.60;;
6955;SDS011;50345;51.136;16.886;2023-02-20T03:56:28;6.50;;;2.70;;
6955;SDS011;50345;51.136;16.886;2023-02-20T03:59:01;8.10;;;3.20;;
6955;SDS011;50345;51.136;16.886;2023-02-20T04:01:36;5.55;;;2.47;;
6955;SDS011;50345;51.136;16.886;2023-02-20T04:04:03;3.33;;;2.03;;
6955;SDS011;50345;51.136;16.886;2023-02-20T04:06:31;4.15;;;2.53;;
6955;SDS011;50345;51.136;16.886;2023-02-20T04:11:28;2.55;;;2.00;;
6955;SDS011;50345;51.136;16.886;2023-02-20T04:13:57;2.83;;;2.00;;
6955;SDS011;50345;51.136;16.886;2023-02-20T04:16:25;13.98;;;3.30;;
6955;SDS011;50345;51.136;16.886;2023-02-20T04:18:51;3.33;;;2.10;;
6955;SDS011;50345;51.136;16.886;2023-02-20T04:21:19;9.30;;;3.00;;
6955;SDS011;50345;51.136;16.886;2023-02-20T04:23:55;6.10;;;2.83;;
6955;SDS011;50345;51.136;16.886;2023-02-20T04:26:27;6.40;;;2.70;;
6955;SDS011;50345;51.136;16.886;2023-02-20T04:28:53;4.73;;;3.70;;
6955;SDS011;50345;51.136;16.886;2023-02-20T04:31:18;6.27;;;3.80;;
6955;SDS011;50345;51.136;16.886;2023-02-20T04:33:45;7.47;;;3.25;;
6955;SDS011;50345;51.136;16.886;2023-02-20T04:36:11;9.27;;;6.30;;
6955;SDS011;50345;51.136;16.886;2023-02-20T04:38:36;5.80;;;5.10;;
6955;SDS011;50345;51.136;16.886;2023-02-20T04:41:02;9.27;;;6.70;;
6955;SDS011;50345;51.136;16.886;2023-02-20T04:43:27;9.43;;;4.17;;
6955;SDS011;50345;51.136;16.886;2023-02-20T04:45:53;6.07;;;4.00;;
6955;SDS011;50345;51.136;16.886;2023-02-20T04:48:19;5.60;;;3.40;;
6955;SDS011;50345;51.136;16.886;2023-02-20T04:50:45;4.57;;;3.47;;
6955;SDS011;50345;51.136;16.886;2023-02-20T04:53:10;4.23;;;3.03;;
6955;SDS011;50345;51.136;16.886;2023-02-20T04:55:36;2.80;;;2.60;;
6955;SDS011;50345;51.136;16.886;2023-02-20T04:58:01;4.97;;;2.80;;
6955;SDS011;50345;51.136;16.886;2023-02-20T05:00:27;7.10;;;3.23;;
6955;SDS011;50345;51.136;16.886;2023-02-20T05:02:52;2.40;;;2.20;;
6955;SDS011;50345;51.136;16.886;2023-02-20T05:05:22;4.93;;;2.43;;
6955;SDS011;50345;51.136;16.886;2023-02-20T05:07:56;4.22;;;2.83;;
6955;SDS011;50345;51.136;16.886;2023-02-20T05:10:24;4.35;;;2.67;;
6955;SDS011;50345;51.136;16.886;2023-02-20T05:12:51;4.97;;;3.78;;
6955;SDS011;50345;51.136;16.886;2023-02-20T05:15:17;3.93;;;2.40;;
6955;SDS011;50345;51.136;16.886;2023-02-20T05:17:44;3.83;;;2.70;;
6955;SDS011;50345;51.136;16.886;2023-02-20T05:20:11;3.15;;;2.47;;
6955;SDS011;50345;51.136;16.886;2023-02-20T05:22:37;5.13;;;3.17;;
6955;SDS011;50345;51.136;16.886;2023-02-20T05:25:03;7.90;;;3.90;;
6955;SDS011;50345;51.136;16.886;2023-02-20T05:27:29;3.53;;;3.20;;
6955;SDS011;50345;51.136;16.886;2023-02-20T05:29:55;4.33;;;3.23;;
6955;SDS011;50345;51.136;16.886;2023-02-20T05:32:23;3.17;;;2.85;;
6955;SDS011;50345;51.136;16.886;2023-02-20T05:34:50;4.10;;;3.45;;
6955;SDS011;50345;51.136;16.886;2023-02-20T05:37:16;3.78;;;2.55;;
6955;SDS011;50345;51.136;16.886;2023-02-20T05:39:44;6.82;;;4.10;;
6955;SDS011;50345;51.136;16.886;2023-02-20T05:42:10;5.53;;;3.15;;
6955;SDS011;50345;51.136;16.886;2023-02-20T05:44:36;7.57;;;3.80;;
6955;SDS011;50345;51.136;16.886;2023-02-20T05:47:02;7.07;;;3.67;;
6955;SDS011;50345;51.136;16.886;2023-02-20T05:49:29;3.60;;;3.28;;
6955;SDS011;50345;51.136;16.886;2023-02-20T05:51:55;8.23;;;4.20;;
6955;SDS011;50345;51.136;16.886;2023-02-20T05:54:22;4.18;;;3.40;;
6955;SDS011;50345;51.136;16.886;2023-02-20T05:56:48;4.43;;;3.92;;
6955;SDS011;50345;51.136;16.886;2023-02-20T05:59:15;4.87;;;3.30;;
6955;SDS011;50345;51.136;16.886;2023-02-20T06:01:42;5.20;;;4.15;;
6955;SDS011;50345;51.136;16.886;2023-02-20T06:04:08;5.37;;;4.73;;
6955;SDS011;50345;51.136;16.886;2023-02-20T06:06:35;6.60;;;4.70;;
6955;SDS011;50345;51.136;16.886;2023-02-20T06:09:03;4.82;;;4.40;;
6955;SDS011;50345;51.136;16.886;2023-02-20T06:11:31;6.35;;;4.25;;
6955;SDS011;50345;51.136;16.886;2023-02-20T06:13:57;6.77;;;4.90;;
6955;SDS011;50345;51.136;16.886;2023-02-20T06:16:23;5.53;;;4.53;;
6955;SDS011;50345;51.136;16.886;2023-02-20T06:18:50;6.85;;;5.55;;
6955;SDS011;50345;51.136;16.886;2023-02-20T06:21:17;7.68;;;5.63;;
6955;SDS011;50345;51.136;16.886;2023-02-20T06:23:44;6.88;;;5.47;;
6955;SDS011;50345;51.136;16.886;2023-02-20T06:26:10;7.47;;;5.37;;
6955;SDS011;50345;51.136;16.886;2023-02-20T06:28:36;7.43;;;5.50;;
6955;SDS011;50345;51.136;16.886;2023-02-20T06:31:03;12.15;;;8.52;;
6955;SDS011;50345;51.136;16.886;2023-02-20T06:33:29;6.75;;;5.15;;
6955;SDS011;50345;51.136;16.886;2023-02-20T06:35:55;5.10;;;4.60;;
6955;SDS011;50345;51.136;16.886;2023-02-20T06:38:21;5.68;;;3.97;;
6955;SDS011;50345;51.136;16.886;2023-02-20T06:40:46;7.10;;;4.00;;
6955;SDS011;50345;51.136;16.886;2023-02-20T06:43:12;7.50;;;4.30;;
6955;SDS011;50345;51.136;16.886;2023-02-20T06:45:38;5.50;;;3.70;;
6955;SDS011;50345;51.136;16.886;2023-02-20T06:48:03;6.17;;;4.40;;
6955;SDS011;50345;51.136;16.886;2023-02-20T06:50:29;4.63;;;4.03;;
6955;SDS011;50345;51.136;16.886;2023-02-20T06:52:55;5.70;;;4.90;;
6955;SDS011;50345;51.136;16.886;2023-02-20T06:55:20;7.70;;;5.20;;
6955;SDS011;50345;51.136;16.886;2023-02-20T06:57:46;5.83;;;3.20;;
6955;SDS011;50345;51.136;16.886;2023-02-20T07:00:11;4.30;;;3.90;;
6955;SDS011;50345;51.136;16.886;2023-02-20T07:02:38;4.25;;;3.58;;
6955;SDS011;50345;51.136;16.886;2023-02-20T07:05:04;5.03;;;3.70;;
6955;SDS011;50345;51.136;16.886;2023-02-20T07:07:30;4.65;;;4.00;;
6955;SDS011;50345;51.136;16.886;2023-02-20T07:09:55;6.53;;;3.77;;
6955;SDS011;50345;51.136;16.886;2023-02-20T07:12:23;4.05;;;3.65;;
6955;SDS011;50345;51.136;16.886;2023-02-20T07:14:50;6.33;;;4.60;;
6955;SDS011;50345;51.136;16.886;2023-02-20T07:17:15;6.07;;;4.75;;
6955;SDS011;50345;51.136;16.886;2023-02-20T07:19:41;4.33;;;3.90;;
6955;SDS011;50345;51.136;16.886;2023-02-20T07:22:06;5.07;;;4.57;;
6955;SDS011;50345;51.136;16.886;2023-02-20T07:24:32;6.10;;;4.30;;
6955;SDS011;50345;51.136;16.886;2023-02-20T07:27:00;7.90;;;3.08;;
6955;SDS011;50345;51.136;16.886;2023-02-20T07:29:26;6.95;;;4.72;;
6955;SDS011;50345;51.136;16.886;2023-02-20T07:31:52;4.53;;;3.90;;
6955;SDS011;50345;51.136;16.886;2023-02-20T07:34:17;8.97;;;4.90;;
6955;SDS011;50345;51.136;16.886;2023-02-20T07:36:43;5.17;;;4.47;;
6955;SDS011;50345;51.136;16.886;2023-02-20T07:39:09;3.43;;;3.13;;
6955;SDS011;50345;51.136;16.886;2023-02-20T07:41:36;4.72;;;4.13;;
6955;SDS011;50345;51.136;16.886;2023-02-20T07:44:02;3.87;;;3.57;;
6955;SDS011;50345;51.136;16.886;2023-02-20T07:46:28;4.00;;;3.70;;
6955;SDS011;50345;51.136;16.886;2023-02-20T07:48:57;5.20;;;4.70;;
6955;SDS011;50345;51.136;16.886;2023-02-20T07:51:27;6.28;;;5.20;;
6955;SDS011;50345;51.136;16.886;2023-02-20T07:53:53;6.07;;;4.97;;
6955;SDS011;50345;51.136;16.886;2023-02-20T07:56:19;4.20;;;3.80;;
6955;SDS011;50345;51.136;16.886;2023-02-20T07:58:46;5.40;;;3.78;;
6955;SDS011;50345;51.136;16.886;2023-02-20T08:01:12;5.68;;;5.05;;
6955;SDS011;50345;51.136;16.886;2023-02-20T08:03:38;4.40;;;4.00;;
6955;SDS011;50345;51.136;16.886;2023-02-20T08:06:04;11.40;;;6.73;;
6955;SDS011;50345;51.136;16.886;2023-02-20T08:08:29;9.77;;;6.40;;
6955;SDS011;50345;51.136;16.886;2023-02-20T08:10:55;7.87;;;6.87;;
6955;SDS011;50345;51.136;16.886;2023-02-20T08:13:21;7.30;;;6.45;;
6955;SDS011;50345;51.136;16.886;2023-02-20T08:15:47;8.27;;;7.35;;
6955;SDS011;50345;51.136;16.886;2023-02-20T08:18:13;6.83;;;5.60;;
6955;SDS011;50345;51.136;16.886;2023-02-20T08:20:40;8.27;;;7.45;;
6955;SDS011;50345;51.136;16.886;2023-02-20T08:23:14;9.67;;;7.57;;
6955;SDS011;50345;51.136;16.886;2023-02-20T08:25:44;8.85;;;7.90;;
6955;SDS011;50345;51.136;16.886;2023-02-20T08:28:11;7.53;;;5.97;;
6955;SDS011;50345;51.136;16.886;2023-02-20T08:30:37;9.98;;;8.20;;
6955;SDS011;50345;51.136;16.886;2023-02-20T08:33:02;9.20;;;7.67;;
6955;SDS011;50345;51.136;16.886;2023-02-20T08:35:30;11.10;;;8.50;;
6955;SDS011;50345;51.136;16.886;2023-02-20T08:38:07;7.88;;;7.07;;
6955;SDS011;50345;51.136;16.886;2023-02-20T08:40:53;10.07;;;8.23;;
6955;SDS011;50345;51.136;16.886;2023-02-20T08:43:19;9.33;;;7.70;;
6955;SDS011;50345;51.136;16.886;2023-02-20T08:45:44;9.93;;;8.47;;
6955;SDS011;50345;51.136;16.886;2023-02-20T08:48:10;7.93;;;7.13;;
6955;SDS011;50345;51.136;16.886;2023-02-20T08:50:36;9.00;;;7.10;;
6955;SDS011;50345;51.136;16.886;2023-02-20T08:53:01;8.00;;;7.23;;
6955;SDS011;50345;51.136;16.886;2023-02-20T08:55:30;8.03;;;7.00;;
6955;SDS011;50345;51.136;16.886;2023-02-20T08:57:56;12.32;;;11.07;;
6955;SDS011;50345;51.136;16.886;2023-02-20T09:00:21;7.57;;;6.80;;
6955;SDS011;50345;51.136;16.886;2023-02-20T09:02:47;7.10;;;6.33;;
6955;SDS011;50345;51.136;16.886;2023-02-20T09:05:13;8.70;;;7.50;;
6955;SDS011;50345;51.136;16.886;2023-02-20T09:07:40;7.10;;;6.40;;
6955;SDS011;50345;51.136;16.886;2023-02-20T09:10:06;6.67;;;6.07;;
6955;SDS011;50345;51.136;16.886;2023-02-20T09:12:33;8.30;;;6.88;;
6955;SDS011;50345;51.136;16.886;2023-02-20T09:14:58;6.63;;;5.93;;
6955;SDS011;50345;51.136;16.886;2023-02-20T09:17:25;9.80;;;7.90;;
6955;SDS011;50345;51.136;16.886;2023-02-20T09:19:51;7.55;;;6.85;;
6955;SDS011;50345;51.136;16.886;2023-02-20T09:22:20;6.57;;;5.93;;
6955;SDS011;50345;51.136;16.886;2023-02-20T09:24:49;7.15;;;6.40;;
6955;SDS011;50345;51.136;16.886;2023-02-20T09:27:15;7.13;;;6.43;;
6955;SDS011;50345;51.136;16.886;2023-02-20T09:29:41;7.63;;;6.90;;
6955;SDS011;50345;51.136;16.886;2023-02-20T09:32:08;7.38;;;6.50;;
6955;SDS011;50345;51.136;16.886;2023-02-20T09:34:34;6.77;;;6.10;;
6955;SDS011;50345;51.136;16.886;2023-02-20T09:36:59;5.70;;;4.80;;
6955;SDS011;50345;51.136;16.886;2023-02-20T09:39:25;7.27;;;6.10;;
6955;SDS011;50345;51.136;16.886;2023-02-20T09:41:55;6.60;;;6.00;;
6955;SDS011;50345;51.136;16.886;2023-02-20T09:47:19;5.15;;;4.75;;
6955;SDS011;50345;51.136;16.886;2023-02-20T09:50:06;6.35;;;5.65;;
6955;SDS011;50345;51.136;16.886;2023-02-20T09:52:39;7.00;;;6.30;;
6955;SDS011;50345;51.136;16.886;2023-02-20T09:55:13;8.13;;;6.20;;
6955;SDS011;50345;51.136;16.886;2023-02-20T09:57:51;5.45;;;4.95;;
6955;SDS011;50345;51.136;16.886;2023-02-20T10:00:20;6.47;;;5.88;;
6955;SDS011;50345;51.136;16.886;2023-02-20T10:02:54;7.03;;;5.80;;
6955;SDS011;50345;51.136;16.886;2023-02-20T10:05:30;7.55;;;6.82;;
6955;SDS011;50345;51.136;16.886;2023-02-20T10:07:56;7.00;;;6.10;;
6955;SDS011;50345;51.136;16.886;2023-02-20T10:10:23;4.70;;;4.30;;
6955;SDS011;50345;51.136;16.886;2023-02-20T10:20:40;5.10;;;4.50;;
6955;SDS011;50345;51.136;16.886;2023-02-20T10:25:59;4.95;;;4.32;;
6955;SDS011;50345;51.136;16.886;2023-02-20T10:28:28;6.22;;;4.78;;
6955;SDS011;50345;51.136;16.886;2023-02-20T10:33:28;4.72;;;4.25;;
6955;SDS011;50345;51.136;16.886;2023-02-20T10:36:11;6.20;;;4.13;;
6955;SDS011;50345;51.136;16.886;2023-02-20T10:41:33;5.25;;;4.63;;
6955;SDS011;50345;51.136;16.886;2023-02-20T10:44:10;6.00;;;4.32;;
6955;SDS011;50345;51.136;16.886;2023-02-20T10:49:18;5.50;;;4.00;;
6955;SDS011;50345;51.136;16.886;2023-02-20T10:51:53;8.15;;;4.55;;
6955;SDS011;50345;51.136;16.886;2023-02-20T10:54:46;6.05;;;4.40;;
6955;SDS011;50345;51.136;16.886;2023-02-20T10:57:26;4.40;;;4.00;;
6955;SDS011;50345;51.136;16.886;2023-02-20T11:00:03;5.45;;;4.65;;
6955;SDS011;50345;51.136;16.886;2023-02-20T11:05:02;8.23;;;5.95;;
6955;SDS011;50345;51.136;16.886;2023-02-20T11:07:33;5.50;;;4.22;;
6955;SDS011;50345;51.136;16.886;2023-02-20T11:09:58;4.03;;;3.37;;
6955;SDS011;50345;51.136;16.886;2023-02-20T11:12:26;2.50;;;2.30;;
6955;SDS011;50345;51.136;16.886;2023-02-20T11:14:56;3.00;;;2.78;;
6955;SDS011;50345;51.136;16.886;2023-02-20T11:17:26;3.45;;;3.15;;
6955;SDS011;50345;51.136;16.886;2023-02-20T11:19:57;3.63;;;3.15;;
6955;SDS011;50345;51.136;16.886;2023-02-20T11:25:28;4.60;;;2.95;;
6955;SDS011;50345;51.136;16.886;2023-02-20T11:28:08;3.97;;;3.58;;
6955;SDS011;50345;51.136;16.886;2023-02-20T11:30:47;2.85;;;2.20;;
6955;SDS011;50345;51.136;16.886;2023-02-20T11:33:23;2.83;;;2.63;;
6955;SDS011;50345;51.136;16.886;2023-02-20T11:35:56;3.20;;;2.90;;
6955;SDS011;50345;51.136;16.886;2023-02-20T11:38:33;1.95;;;1.75;;
6955;SDS011;50345;51.136;16.886;2023-02-20T11:41:01;2.90;;;2.67;;
6955;SDS011;50345;51.136;16.886;2023-02-20T11:43:32;4.25;;;2.55;;
6955;SDS011;50345;51.136;16.886;2023-02-20T11:56:54;2.92;;;2.03;;
6955;SDS011;50345;51.136;16.886;2023-02-20T12:01:58;2.60;;;2.20;;
6955;SDS011;50345;51.136;16.886;2023-02-20T12:04:36;2.13;;;1.92;;
6955;SDS011;50345;51.136;16.886;2023-02-20T12:07:15;3.58;;;3.17;;
6955;SDS011;50345;51.136;16.886;2023-02-20T12:09:49;4.30;;;3.83;;
6955;SDS011;50345;51.136;16.886;2023-02-20T12:12:17;3.45;;;2.00;;
6955;SDS011;50345;51.136;16.886;2023-02-20T12:14:47;3.05;;;2.10;;
6955;SDS011;50345;51.136;16.886;2023-02-20T12:17:22;3.13;;;2.17;;
6955;SDS011;50345;51.136;16.886;2023-02-20T12:20:01;2.17;;;1.98;;
6955;SDS011;50345;51.136;16.886;2023-02-20T12:22:37;3.45;;;1.70;;
6955;SDS011;50345;51.136;16.886;2023-02-20T12:27:43;2.55;;;2.00;;
6955;SDS011;50345;51.136;16.886;2023-02-20T12:35:56;4.97;;;3.25;;
6955;SDS011;50345;51.136;16.886;2023-02-20T12:44:47;2.58;;;2.00;;
6955;SDS011;50345;51.136;16.886;2023-02-20T12:47:35;3.20;;;2.80;;
6955;SDS011;50345;51.136;16.886;2023-02-20T12:53:46;3.58;;;2.90;;
6955;SDS011;50345;51.136;16.886;2023-02-20T13:01:20;3.17;;;2.97;;
6955;SDS011;50345;51.136;16.886;2023-02-20T13:04:37;5.15;;;3.05;;
6955;SDS011;50345;51.136;16.886;2023-02-20T13:06:59;3.97;;;3.58;;
6955;SDS011;50345;51.136;16.886;2023-02-20T13:09:34;5.68;;;5.10;;
6955;SDS011;50345;51.136;16.886;2023-02-20T13:12:05;4.40;;;4.00;;
6955;SDS011;50345;51.136;16.886;2023-02-20T13:22:43;8.88;;;3.00;;
6955;SDS011;50345;51.136;16.886;2023-02-20T13:25:36;3.72;;;3.42;;
6955;SDS011;50345;51.136;16.886;2023-02-20T13:31:16;6.65;;;2.35;;
6955;SDS011;50345;51.136;16.886;2023-02-20T13:52:29;2.67;;;1.80;;
6955;SDS011;50345;51.136;16.886;2023-02-20T13:55:00;2.05;;;1.95;;
6955;SDS011;50345;51.136;16.886;2023-02-20T13:57:30;2.55;;;1.90;;
6955;SDS011;50345;51.136;16.886;2023-02-20T14:00:00;1.73;;;1.63;;
6955;SDS011;50345;51.136;16.886;2023-02-20T14:02:26;4.65;;;2.10;;
6955;SDS011;50345;51.136;16.886;2023-02-20T14:07:29;2.90;;;1.88;;
6955;SDS011;50345;51.136;16.886;2023-02-20T14:10:04;2.50;;;2.30;;
6955;SDS011;50345;51.136;16.886;2023-02-20T14:12:32;1.77;;;1.63;;
6955;SDS011;50345;51.136;16.886;2023-02-20T14:15:01;2.53;;;2.13;;
6955;SDS011;50345;51.136;16.886;2023-02-20T14:17:28;2.83;;;2.20;;
6955;SDS011;50345;51.136;16.886;2023-02-20T14:19:56;4.30;;;3.35;;
6955;SDS011;50345;51.136;16.886;2023-02-20T14:25:01;2.95;;;2.38;;
6955;SDS011;50345;51.136;16.886;2023-02-20T14:27:39;3.22;;;2.67;;
6955;SDS011;50345;51.136;16.886;2023-02-20T14:32:46;3.90;;;2.63;;
6955;SDS011;50345;51.136;16.886;2023-02-20T14:38:24;2.40;;;2.20;;
6955;SDS011;50345;51.136;16.886;2023-02-20T14:40:56;3.15;;;2.92;;
6955;SDS011;50345;51.136;16.886;2023-02-20T14:43:22;3.07;;;2.67;;
6955;SDS011;50345;51.136;16.886;2023-02-20T14:48:30;5.20;;;3.25;;
6955;SDS011;50345;51.136;16.886;2023-02-20T14:56:47;3.00;;;2.45;;
6955;SDS011;50345;51.136;16.886;2023-02-20T14:59:21;3.00;;;2.47;;
6955;SDS011;50345;51.136;16.886;2023-02-20T15:01:48;2.35;;;2.15;;
6955;SDS011;50345;51.136;16.886;2023-02-20T15:04:15;2.58;;;2.22;;
6955;SDS011;50345;51.136;16.886;2023-02-20T15:06:43;2.47;;;2.28;;
6955;SDS011;50345;51.136;16.886;2023-02-20T15:09:11;2.88;;;2.50;;
6955;SDS011;50345;51.136;16.886;2023-02-20T15:11:48;6.70;;;4.45;;
6955;SDS011;50345;51.136;16.886;2023-02-20T15:14:16;2.22;;;2.03;;
6955;SDS011;50345;51.136;16.886;2023-02-20T15:16:47;3.90;;;2.20;;
6955;SDS011;50345;51.136;16.886;2023-02-20T15:19:35;3.70;;;2.30;;
6955;SDS011;50345;51.136;16.886;2023-02-20T15:22:03;2.47;;;1.95;;
6955;SDS011;50345;51.136;16.886;2023-02-20T15:24:33;4.35;;;2.53;;
6955;SDS011;50345;51.136;16.886;2023-02-20T15:27:07;6.28;;;2.70;;
6955;SDS011;50345;51.136;16.886;2023-02-20T15:29:34;4.32;;;3.10;;
6955;SDS011;50345;51.136;16.886;2023-02-20T15:32:02;3.60;;;3.27;;
6955;SDS011;50345;51.136;16.886;2023-02-20T15:34:39;3.35;;;2.90;;
6955;SDS011;50345;51.136;16.886;2023-02-20T15:37:18;2.43;;;2.23;;
6955;SDS011;50345;51.136;16.886;2023-02-20T15:39:48;2.30;;;1.88;;
6955;SDS011;50345;51.136;16.886;2023-02-20T15:42:15;2.42;;;2.10;;
6955;SDS011;50345;51.136;16.886;2023-02-20T15:44:42;2.15;;;1.88;;
6955;SDS011;50345;51.136;16.886;2023-02-20T15:47:08;3.40;;;2.13;;
6955;SDS011;50345;51.136;16.886;2023-02-20T15:49:33;2.73;;;2.03;;
6955;SDS011;50345;51.136;16.886;2023-02-20T15:51:59;4.73;;;2.17;;
6955;SDS011;50345;51.136;16.886;2023-02-20T15:54:25;4.63;;;3.10;;
6955;SDS011;50345;51.136;16.886;2023-02-20T15:56:51;3.92;;;2.00;;
6955;SDS011;50345;51.136;16.886;2023-02-20T15:59:17;7.03;;;5.67;;
6955;SDS011;50345;51.136;16.886;2023-02-20T16:01:43;2.53;;;2.33;;
6955;SDS011;50345;51.136;16.886;2023-02-20T16:04:10;4.95;;;3.53;;
6955;SDS011;50345;51.136;16.886;2023-02-20T16:06:39;4.45;;;3.92;;
6955;SDS011;50345;51.136;16.886;2023-02-20T16:09:06;7.47;;;6.68;;
6955;SDS011;50345;51.136;16.886;2023-02-20T16:11:34;9.47;;;4.13;;
6955;SDS011;50345;51.136;16.886;2023-02-20T16:14:04;5.55;;;5.10;;
6955;SDS011;50345;51.136;16.886;2023-02-20T16:16:37;8.13;;;7.00;;
6955;SDS011;50345;51.136;16.886;2023-02-20T16:19:09;14.68;;;12.23;;
6955;SDS011;50345;51.136;16.886;2023-02-20T16:21:40;5.43;;;4.50;;
6955;SDS011;50345;51.136;16.886;2023-02-20T16:24:07;7.38;;;4.05;;
6955;SDS011;50345;51.136;16.886;2023-02-20T16:26:32;4.47;;;4.07;;
6955;SDS011;50345;51.136;16.886;2023-02-20T16:29:00;10.60;;;6.95;;
6955;SDS011;50345;51.136;16.886;2023-02-20T16:34:21;3.10;;;2.80;;
6955;SDS011;50345;51.136;16.886;2023-02-20T16:36:48;4.65;;;2.30;;
6955;SDS011;50345;51.136;16.886;2023-02-20T16:39:14;6.40;;;5.80;;
6955;SDS011;50345;51.136;16.886;2023-02-20T16:41:40;12.67;;;11.60;;
6955;SDS011;50345;51.136;16.886;2023-02-20T16:44:13;3.80;;;3.40;;
6955;SDS011;50345;51.136;16.886;2023-02-20T16:46:47;6.32;;;5.65;;
6955;SDS011;50345;51.136;16.886;2023-02-20T16:49:13;3.87;;;2.70;;
6955;SDS011;50345;51.136;16.886;2023-02-20T16:51:41;4.07;;;3.25;;
6955;SDS011;50345;51.136;16.886;2023-02-20T16:54:15;2.75;;;2.50;;
6955;SDS011;50345;51.136;16.886;2023-02-20T16:56:40;5.03;;;4.50;;
6955;SDS011;50345;51.136;16.886;2023-02-20T16:59:06;5.47;;;4.40;;
6955;SDS011;50345;51.136;16.886;2023-02-20T17:01:34;2.67;;;2.15;;
6955;SDS011;50345;51.136;16.886;2023-02-20T17:04:00;4.23;;;3.30;;
6955;SDS011;50345;51.136;16.886;2023-02-20T17:06:25;7.10;;;6.40;;
6955;SDS011;50345;51.136;16.886;2023-02-20T17:08:54;2.95;;;2.00;;
6955;SDS011;50345;51.136;16.886;2023-02-20T17:11:20;4.38;;;3.72;;
6955;SDS011;50345;51.136;16.886;2023-02-20T17:13:46;6.53;;;2.87;;
6955;SDS011;50345;51.136;16.886;2023-02-20T17:16:11;2.80;;;2.60;;
6955;SDS011;50345;51.136;16.886;2023-02-20T17:18:37;9.23;;;7.30;;
6955;SDS011;50345;51.136;16.886;2023-02-20T17:21:02;3.60;;;2.90;;
6955;SDS011;50345;51.136;16.886;2023-02-20T17:23:28;6.03;;;4.70;;
6955;SDS011;50345;51.136;16.886;2023-02-20T17:25:54;9.73;;;8.83;;
6955;SDS011;50345;51.136;16.886;2023-02-20T17:28:19;4.67;;;4.17;;
6955;SDS011;50345;51.136;16.886;2023-02-20T17:30:45;6.23;;;2.33;;